sensor_id;sensor_type;location;lat;lon;timestamp;pressure;altitude;pressure_sealevel;temperature;humidity
77003;BME280;65939;50.060;14.288;2024-01-15T00:00:47;95583.94;;;0.03;78.54
77003;BME280;65939;50.060;14.288;2024-01-15T00:02:48;95580.56;;;0.02;79.17
77003;BME280;65939;50.060;14.288;2024-01-15T00:04:49;95573.81;;;0.01;78.45
77003;BME280;65939;50.060;14.288;2024-01-15T00:06:50;95574.19;;;-0.04;78.65
77003;BME280;65939;50.060;14.288;2024-01-15T00:08:50;95553.25;;;-0.09;78.29
77003;BME280;65939;50.060;14.288;2024-01-15T00:10:51;95562.97;;;-0.12;78.96
77003;BME280;65939;50.060;14.288;2024-01-15T00:12:52;95560.81;;;-0.17;78.61
77003;BME280;65939;50.060;14.288;2024-01-15T00:14:53;95569.59;;;-0.19;78.47
77003;BME280;65939;50.060;14.288;2024-01-15T00:16:54;95565.66;;;-0.23;78.64
77003;BME280;65939;50.060;14.288;2024-01-15T00:18:55;95557.28;;;-0.26;78.94
77003;BME280;65939;50.060;14.288;2024-01-15T00:20:56;95555.66;;;-0.27;78.65
77003;BME280;65939;50.060;14.288;2024-01-15T00:22:56;95554.06;;;-0.28;78.93
77003;BME280;65939;50.060;14.288;2024-01-15T00:24:57;95544.72;;;-0.29;78.88
77003;BME280;65939;50.060;14.288;2024-01-15T00:26:58;95537.97;;;-0.30;79.49
77003;BME280;65939;50.060;14.288;2024-01-15T00:28:59;95541.59;;;-0.32;79.06
77003;BME280;65939;50.060;14.288;2024-01-15T00:30:59;95540.00;;;-0.33;79.22
77003;BME280;65939;50.060;14.288;2024-01-15T00:33:00;95542.69;;;-0.35;78.71
77003;BME280;65939;50.060;14.288;2024-01-15T00:35:02;95531.91;;;-0.38;78.96
77003;BME280;65939;50.060;14.288;2024-01-15T00:37:04;95529.34;;;-0.38;78.82
77003;BME280;65939;50.060;14.288;2024-01-15T00:39:07;95532.72;;;-0.38;79.35
77003;BME280;65939;50.060;14.288;2024-01-15T00:41:08;95520.00;;;-0.39;79.38
77003;BME280;65939;50.060;14.288;2024-01-15T00:43:08;95519.09;;;-0.38;79.52
77003;BME280;65939;50.060;14.288;2024-01-15T00:45:09;95513.41;;;-0.42;79.42
77003;BME280;65939;50.060;14.288;2024-01-15T00:47:10;95527.97;;;-0.42;79.41
77003;BME280;65939;50.060;14.288;2024-01-15T00:49:12;95521.09;;;-0.42;79.42
77003;BME280;65939;50.060;14.288;2024-01-15T00:51:12;95518.41;;;-0.40;79.56
77003;BME280;65939;50.060;14.288;2024-01-15T00:53:13;95506.53;;;-0.41;78.98
77003;BME280;65939;50.060;14.288;2024-01-15T00:55:14;95504.91;;;-0.42;79.16
77003;BME280;65939;50.060;14.288;2024-01-15T00:57:14;95509.75;;;-0.39;79.14
77003;BME280;65939;50.060;14.288;2024-01-15T00:59:15;95507.06;;;-0.38;79.26
77003;BME280;65939;50.060;14.288;2024-01-15T01:01:15;95511.41;;;-0.38;79.44
77003;BME280;65939;50.060;14.288;2024-01-15T01:03:16;95512.19;;;-0.38;79.29
77003;BME280;65939;50.060;14.288;2024-01-15T01:05:17;95506.13;;;-0.37;79.37
77003;BME280;65939;50.060;14.288;2024-01-15T01:07:17;95497.47;;;-0.36;79.37
77003;BME280;65939;50.060;14.288;2024-01-15T01:09:19;95504.25;;;-0.35;79.47
77003;BME280;65939;50.060;14.288;2024-01-15T01:11:20;95492.22;;;-0.34;79.85
77003;BME280;65939;50.060;14.288;2024-01-15T01:13:21;95495.59;;;-0.34;79.25
77003;BME280;65939;50.060;14.288;2024-01-15T01:15:21;95491.44;;;-0.35;79.12
77003;BME280;65939;50.060;14.288;2024-01-15T01:17:22;95499.94;;;-0.34;79.32
77003;BME280;65939;50.060;14.288;2024-01-15T01:19:23;95504.09;;;-0.33;78.73
77003;BME280;65939;50.060;14.288;2024-01-15T01:21:25;95504.09;;;-0.33;78.89
77003;BME280;65939;50.060;14.288;2024-01-15T01:23:26;95492.91;;;-0.32;78.47
77003;BME280;65939;50.060;14.288;2024-01-15T01:25:27;95498.97;;;-0.33;78.36
77003;BME280;65939;50.060;14.288;2024-01-15T01:27:27;95502.50;;;-0.34;78.86
77003;BME280;65939;50.060;14.288;2024-01-15T01:29:28;95501.53;;;-0.33;77.96
77003;BME280;65939;50.060;14.288;2024-01-15T01:31:29;95498.97;;;-0.33;78.48
77003;BME280;65939;50.060;14.288;2024-01-15T01:33:29;95495.47;;;-0.32;78.08
77003;BME280;65939;50.060;14.288;2024-01-15T01:35:30;95497.09;;;-0.31;77.94
77003;BME280;65939;50.060;14.288;2024-01-15T01:37:31;95485.19;;;-0.32;78.09
77003;BME280;65939;50.060;14.288;2024-01-15T01:39:33;95487.66;;;-0.31;78.08
77003;BME280;65939;50.060;14.288;2024-01-15T01:41:34;95483.59;;;-0.33;77.78
77003;BME280;65939;50.060;14.288;2024-01-15T01:43:34;95472.53;;;-0.34;77.59
77003;BME280;65939;50.060;14.288;2024-01-15T01:45:35;95470.91;;;-0.35;77.51
77003;BME280;65939;50.060;14.288;2024-01-15T01:47:37;95449.72;;;-0.37;77.67
77003;BME280;65939;50.060;14.288;2024-01-15T01:49:38;95455.00;;;-0.38;77.70
77003;BME280;65939;50.060;14.288;2024-01-15T01:51:39;95460.38;;;-0.41;77.40
77003;BME280;65939;50.060;14.288;2024-01-15T01:53:40;95450.41;;;-0.44;77.75
77003;BME280;65939;50.060;14.288;2024-01-15T01:55:41;95454.84;;;-0.46;77.17
77003;BME280;65939;50.060;14.288;2024-01-15T01:57:42;95449.03;;;-0.49;77.34
77003;BME280;65939;50.060;14.288;2024-01-15T01:59:44;95449.72;;;-0.46;78.03
77003;BME280;65939;50.060;14.288;2024-01-15T02:01:46;95441.22;;;-0.47;77.46
77003;BME280;65939;50.060;14.288;2024-01-15T02:03:48;95440.41;;;-0.47;77.12
77003;BME280;65939;50.060;14.288;2024-01-15T02:05:49;95433.41;;;-0.45;77.57
77003;BME280;65939;50.060;14.288;2024-01-15T02:07:50;95449.72;;;-0.46;77.35
77003;BME280;65939;50.060;14.288;2024-01-15T02:09:51;95440.66;;;-0.51;77.04
77003;BME280;65939;50.060;14.288;2024-01-15T02:11:52;95452.00;;;-0.53;76.97
77003;BME280;65939;50.060;14.288;2024-01-15T02:13:52;95449.56;;;-0.55;77.18
77003;BME280;65939;50.060;14.288;2024-01-15T02:15:53;95448.75;;;-0.55;77.52
77003;BME280;65939;50.060;14.288;2024-01-15T02:18:00;95447.00;;;-0.55;77.81
77003;BME280;65939;50.060;14.288;2024-01-15T02:20:01;95442.56;;;-0.53;77.89
77003;BME280;65939;50.060;14.288;2024-01-15T02:22:04;95441.88;;;-0.55;77.76
77003;BME280;65939;50.060;14.288;2024-01-15T02:24:05;95434.06;;;-0.53;77.19
77003;BME280;65939;50.060;14.288;2024-01-15T02:26:06;95432.31;;;-0.53;77.39
77003;BME280;65939;50.060;14.288;2024-01-15T02:28:11;95433.94;;;-0.52;77.46
77003;BME280;65939;50.060;14.288;2024-01-15T02:30:12;95429.75;;;-0.53;77.48
77003;BME280;65939;50.060;14.288;2024-01-15T02:32:13;95433.38;;;-0.55;77.25
77003;BME280;65939;50.060;14.288;2024-01-15T02:34:14;95426.66;;;-0.56;77.72
77003;BME280;65939;50.060;14.288;2024-01-15T02:36:16;95428.66;;;-0.60;77.81
77003;BME280;65939;50.060;14.288;2024-01-15T02:38:17;95431.22;;;-0.60;77.88
77003;BME280;65939;50.060;14.288;2024-01-15T02:40:17;95393.59;;;-0.59;77.43
77003;BME280;65939;50.060;14.288;2024-01-15T02:42:18;95409.78;;;-0.59;77.86
77003;BME280;65939;50.060;14.288;2024-01-15T02:44:19;95419.34;;;-0.61;77.67
77003;BME280;65939;50.060;14.288;2024-01-15T02:46:19;95405.72;;;-0.61;77.75
77003;BME280;65939;50.060;14.288;2024-01-15T02:48:20;95406.69;;;-0.62;77.49
77003;BME280;65939;50.060;14.288;2024-01-15T02:50:21;95417.63;;;-0.60;77.77
77003;BME280;65939;50.060;14.288;2024-01-15T02:52:21;95423.81;;;-0.63;77.67
77003;BME280;65939;50.060;14.288;2024-01-15T02:54:22;95430.00;;;-0.65;77.31
77003;BME280;65939;50.060;14.288;2024-01-15T02:56:23;95420.81;;;-0.68;77.42
77003;BME280;65939;50.060;14.288;2024-01-15T02:58:23;95422.56;;;-0.68;77.86
77003;BME280;65939;50.060;14.288;2024-01-15T03:00:24;95411.66;;;-0.70;77.27
77003;BME280;65939;50.060;14.288;2024-01-15T03:02:25;95427.16;;;-0.72;77.65
77003;BME280;65939;50.060;14.288;2024-01-15T03:04:25;95435.25;;;-0.77;77.59
77003;BME280;65939;50.060;14.288;2024-01-15T03:06:26;95427.81;;;-0.80;78.21
77003;BME280;65939;50.060;14.288;2024-01-15T03:08:27;95444.78;;;-0.79;78.42
77003;BME280;65939;50.060;14.288;2024-01-15T03:10:29;95456.13;;;-0.81;78.05
77003;BME280;65939;50.060;14.288;2024-01-15T03:12:30;95439.13;;;-0.82;78.18
77003;BME280;65939;50.060;14.288;2024-01-15T03:14:31;95442.63;;;-0.83;78.15
77003;BME280;65939;50.060;14.288;2024-01-15T03:16:31;95434.28;;;-0.85;77.94
77003;BME280;65939;50.060;14.288;2024-01-15T03:18:32;95436.00;;;-0.86;77.91
77003;BME280;65939;50.060;14.288;2024-01-15T03:20:33;95419.72;;;-0.85;78.05
77003;BME280;65939;50.060;14.288;2024-01-15T03:22:33;95421.19;;;-0.82;78.01
77003;BME280;65939;50.060;14.288;2024-01-15T03:24:34;95411.78;;;-0.82;78.01
77003;BME280;65939;50.060;14.288;2024-01-15T03:26:35;95419.59;;;-0.83;77.44
77003;BME280;65939;50.060;14.288;2024-01-15T03:28:36;95400.84;;;-0.84;77.38
77003;BME280;65939;50.060;14.288;2024-01-15T03:30:36;95397.47;;;-0.84;77.83
77003;BME280;65939;50.060;14.288;2024-01-15T03:32:37;95390.88;;;-0.87;77.41
77003;BME280;65939;50.060;14.288;2024-01-15T03:34:38;95398.44;;;-0.85;77.04
77003;BME280;65939;50.060;14.288;2024-01-15T03:36:38;95393.41;;;-0.87;76.82
77003;BME280;65939;50.060;14.288;2024-01-15T03:38:42;95395.44;;;-0.90;77.18
77003;BME280;65939;50.060;14.288;2024-01-15T03:40:42;95404.34;;;-0.94;77.01
77003;BME280;65939;50.060;14.288;2024-01-15T03:42:43;95390.97;;;-0.98;77.03
77003;BME280;65939;50.060;14.288;2024-01-15T03:44:44;95405.81;;;-1.02;76.76
77003;BME280;65939;50.060;14.288;2024-01-15T03:46:44;95388.13;;;-1.05;76.75
77003;BME280;65939;50.060;14.288;2024-01-15T03:48:45;95386.63;;;-1.07;76.79
77003;BME280;65939;50.060;14.288;2024-01-15T03:50:45;95391.91;;;-1.09;77.17
77003;BME280;65939;50.060;14.288;2024-01-15T03:52:46;95389.59;;;-1.12;76.69
77003;BME280;65939;50.060;14.288;2024-01-15T03:54:47;95393.09;;;-1.13;76.68
77003;BME280;65939;50.060;14.288;2024-01-15T03:56:47;95402.53;;;-1.13;76.72
77003;BME280;65939;50.060;14.288;2024-01-15T03:58:48;95393.78;;;-1.11;76.77
77003;BME280;65939;50.060;14.288;2024-01-15T04:00:49;95390.41;;;-1.11;76.68
77003;BME280;65939;50.060;14.288;2024-01-15T04:02:49;95396.31;;;-1.11;76.75
77003;BME280;65939;50.060;14.288;2024-01-15T04:04:50;95410.47;;;-1.16;77.10
77003;BME280;65939;50.060;14.288;2024-01-15T04:06:51;95415.03;;;-1.20;76.85
77003;BME280;65939;50.060;14.288;2024-01-15T04:08:51;95409.94;;;-1.20;77.24
77003;BME280;65939;50.060;14.288;2024-01-15T04:10:52;95415.84;;;-1.19;77.14
77003;BME280;65939;50.060;14.288;2024-01-15T04:12:52;95421.78;;;-1.19;76.75
77003;BME280;65939;50.060;14.288;2024-01-15T04:14:53;95417.59;;;-1.20;76.65
77003;BME280;65939;50.060;14.288;2024-01-15T04:16:54;95415.03;;;-1.20;77.08
77003;BME280;65939;50.060;14.288;2024-01-15T04:18:55;95408.28;;;-1.21;77.31
77003;BME280;65939;50.060;14.288;2024-01-15T04:20:55;95420.97;;;-1.19;77.74
77003;BME280;65939;50.060;14.288;2024-01-15T04:22:56;95430.41;;;-1.20;77.57
77003;BME280;65939;50.060;14.288;2024-01-15T04:24:57;95425.94;;;-1.18;77.22
77003;BME280;65939;50.060;14.288;2024-01-15T04:26:57;95423.53;;;-1.19;77.46
77003;BME280;65939;50.060;14.288;2024-01-15T04:28:58;95423.38;;;-1.18;77.81
77003;BME280;65939;50.060;14.288;2024-01-15T04:30:59;95425.41;;;-1.22;76.95
77003;BME280;65939;50.060;14.288;2024-01-15T04:33:00;95402.50;;;-1.23;77.24
77003;BME280;65939;50.060;14.288;2024-01-15T04:35:00;95390.66;;;-1.24;77.27
77003;BME280;65939;50.060;14.288;2024-01-15T04:37:02;95389.00;;;-1.25;77.63
77003;BME280;65939;50.060;14.288;2024-01-15T04:39:02;95377.97;;;-1.26;77.89
77003;BME280;65939;50.060;14.288;2024-01-15T04:41:03;95381.34;;;-1.25;77.53
77003;BME280;65939;50.060;14.288;2024-01-15T04:43:04;95390.66;;;-1.24;77.75
77003;BME280;65939;50.060;14.288;2024-01-15T04:45:04;95393.31;;;-1.26;77.37
77003;BME280;65939;50.060;14.288;2024-01-15T04:47:05;95409.75;;;-1.28;77.17
77003;BME280;65939;50.060;14.288;2024-01-15T04:49:06;95421.88;;;-1.30;77.73
77003;BME280;65939;50.060;14.288;2024-01-15T04:51:08;95419.44;;;-1.32;77.29
77003;BME280;65939;50.060;14.288;2024-01-15T04:53:09;95439.25;;;-1.34;77.41
77003;BME280;65939;50.060;14.288;2024-01-15T04:55:10;95438.56;;;-1.36;77.51
77003;BME280;65939;50.060;14.288;2024-01-15T04:57:11;95442.75;;;-1.35;77.81
77003;BME280;65939;50.060;14.288;2024-01-15T04:59:11;95435.88;;;-1.34;77.46
77003;BME280;65939;50.060;14.288;2024-01-15T05:01:12;95432.38;;;-1.33;77.79
77003;BME280;65939;50.060;14.288;2024-01-15T05:03:13;95425.75;;;-1.36;77.85
77003;BME280;65939;50.060;14.288;2024-01-15T05:05:14;95424.84;;;-1.35;78.05
77003;BME280;65939;50.060;14.288;2024-01-15T05:07:14;95409.59;;;-1.36;77.65
77003;BME280;65939;50.060;14.288;2024-01-15T05:09:15;95405.28;;;-1.36;77.90
77003;BME280;65939;50.060;14.288;2024-01-15T05:11:16;95408.09;;;-1.39;77.62
77003;BME280;65939;50.060;14.288;2024-01-15T05:13:16;95402.84;;;-1.37;77.57
77003;BME280;65939;50.060;14.288;2024-01-15T05:15:17;95414.72;;;-1.36;77.99
77003;BME280;65939;50.060;14.288;2024-01-15T05:17:18;95435.19;;;-1.36;77.55
77003;BME280;65939;50.060;14.288;2024-01-15T05:19:18;95438.44;;;-1.34;77.48
77003;BME280;65939;50.060;14.288;2024-01-15T05:21:19;95439.09;;;-1.32;77.89
77003;BME280;65939;50.060;14.288;2024-01-15T05:23:20;95448.41;;;-1.31;77.79
77003;BME280;65939;50.060;14.288;2024-01-15T05:25:20;95463.50;;;-1.28;77.94
77003;BME280;65939;50.060;14.288;2024-01-15T05:27:21;95468.38;;;-1.25;77.97
77003;BME280;65939;50.060;14.288;2024-01-15T05:29:22;95467.44;;;-1.24;77.48
77003;BME280;65939;50.060;14.288;2024-01-15T05:31:22;95468.13;;;-1.22;77.54
77003;BME280;65939;50.060;14.288;2024-01-15T05:33:23;95478.09;;;-1.19;77.57
77003;BME280;65939;50.060;14.288;2024-01-15T05:35:24;95468.56;;;-1.17;76.83
77003;BME280;65939;50.060;14.288;2024-01-15T05:37:25;95472.59;;;-1.14;77.05
77003;BME280;65939;50.060;14.288;2024-01-15T05:39:25;95477.59;;;-1.13;76.76
77003;BME280;65939;50.060;14.288;2024-01-15T05:41:26;95482.56;;;-1.11;76.80
77003;BME280;65939;50.060;14.288;2024-01-15T05:43:27;95491.22;;;-1.12;76.67
77003;BME280;65939;50.060;14.288;2024-01-15T05:45:28;95478.66;;;-1.15;76.55
77003;BME280;65939;50.060;14.288;2024-01-15T05:47:29;95476.25;;;-1.17;77.00
77003;BME280;65939;50.060;14.288;2024-01-15T05:49:30;95476.25;;;-1.17;76.60
77003;BME280;65939;50.060;14.288;2024-01-15T05:51:30;95474.47;;;-1.16;76.44
77003;BME280;65939;50.060;14.288;2024-01-15T05:53:31;95472.72;;;-1.16;76.31
77003;BME280;65939;50.060;14.288;2024-01-15T05:55:32;95463.44;;;-1.17;76.60
77003;BME280;65939;50.060;14.288;2024-01-15T05:57:32;95468.56;;;-1.17;76.28
77003;BME280;65939;50.060;14.288;2024-01-15T05:59:33;95476.34;;;-1.18;76.38
77003;BME280;65939;50.060;14.288;2024-01-15T06:01:36;95480.66;;;-1.19;76.35
77003;BME280;65939;50.060;14.288;2024-01-15T06:03:37;95483.22;;;-1.19;76.39
77003;BME280;65939;50.060;14.288;2024-01-15T06:05:37;95479.97;;;-1.21;76.21
77003;BME280;65939;50.060;14.288;2024-01-15T06:07:38;95479.56;;;-1.26;76.17
77003;BME280;65939;50.060;14.288;2024-01-15T06:09:39;95463.09;;;-1.33;75.89
77003;BME280;65939;50.060;14.288;2024-01-15T06:11:39;95469.25;;;-1.36;76.39
77003;BME280;65939;50.060;14.288;2024-01-15T06:13:40;95466.94;;;-1.39;76.16
77003;BME280;65939;50.060;14.288;2024-01-15T06:15:41;95467.34;;;-1.43;76.44
77003;BME280;65939;50.060;14.288;2024-01-15T06:17:41;95461.66;;;-1.47;76.66
77003;BME280;65939;50.060;14.288;2024-01-15T06:19:42;95462.72;;;-1.50;76.86
77003;BME280;65939;50.060;14.288;2024-01-15T06:21:42;95470.69;;;-1.53;77.17
77003;BME280;65939;50.060;14.288;2024-01-15T06:23:43;95461.59;;;-1.57;76.85
77003;BME280;65939;50.060;14.288;2024-01-15T06:25:44;95463.34;;;-1.57;77.38
77003;BME280;65939;50.060;14.288;2024-01-15T06:27:44;95460.94;;;-1.59;77.17
77003;BME280;65939;50.060;14.288;2024-01-15T06:29:46;95453.38;;;-1.60;77.58
77003;BME280;65939;50.060;14.288;2024-01-15T06:31:49;95459.13;;;-1.68;77.36
77003;BME280;65939;50.060;14.288;2024-01-15T06:33:50;95454.53;;;-1.74;77.41
77003;BME280;65939;50.060;14.288;2024-01-15T06:35:51;95464.22;;;-1.78;77.43
77003;BME280;65939;50.060;14.288;2024-01-15T06:37:51;95469.69;;;-1.82;77.68
77003;BME280;65939;50.060;14.288;2024-01-15T06:39:52;95472.38;;;-1.84;77.69
77003;BME280;65939;50.060;14.288;2024-01-15T06:41:52;95469.34;;;-1.89;77.52
77003;BME280;65939;50.060;14.288;2024-01-15T06:43:53;95476.47;;;-1.93;77.87
77003;BME280;65939;50.060;14.288;2024-01-15T06:45:54;95480.22;;;-1.97;77.99
77003;BME280;65939;50.060;14.288;2024-01-15T06:47:55;95482.09;;;-1.99;77.82
77003;BME280;65939;50.060;14.288;2024-01-15T06:49:55;95480.44;;;-2.00;78.34
77003;BME280;65939;50.060;14.288;2024-01-15T06:51:56;95483.94;;;-2.01;78.35
77003;BME280;65939;50.060;14.288;2024-01-15T06:53:57;95493.38;;;-2.01;78.46
77003;BME280;65939;50.060;14.288;2024-01-15T06:55:58;95483.38;;;-2.04;78.61
77003;BME280;65939;50.060;14.288;2024-01-15T06:57:59;95493.84;;;-2.07;78.75
77003;BME280;65939;50.060;14.288;2024-01-15T07:00:00;95494.09;;;-2.10;78.54
77003;BME280;65939;50.060;14.288;2024-01-15T07:02:03;95497.34;;;-2.08;78.94
77003;BME280;65939;50.060;14.288;2024-01-15T07:04:04;95489.69;;;-2.08;79.01
77003;BME280;65939;50.060;14.288;2024-01-15T07:06:05;95495.75;;;-2.09;79.41
77003;BME280;65939;50.060;14.288;2024-01-15T07:08:06;95510.25;;;-2.10;79.09
77003;BME280;65939;50.060;14.288;2024-01-15T07:10:07;95510.25;;;-2.10;79.21
77003;BME280;65939;50.060;14.288;2024-01-15T07:12:07;95502.56;;;-2.10;79.29
77003;BME280;65939;50.060;14.288;2024-01-15T07:14:08;95508.63;;;-2.11;79.27
77003;BME280;65939;50.060;14.288;2024-01-15T07:16:09;95515.63;;;-2.13;79.46
77003;BME280;65939;50.060;14.288;2024-01-15T07:18:10;95510.50;;;-2.13;79.69
77003;BME280;65939;50.060;14.288;2024-01-15T07:20:11;95515.63;;;-2.13;79.70
77003;BME280;65939;50.060;14.288;2024-01-15T07:22:12;95518.19;;;-2.13;79.55
77003;BME280;65939;50.060;14.288;2024-01-15T07:24:12;95523.03;;;-2.10;79.52
77003;BME280;65939;50.060;14.288;2024-01-15T07:26:13;95527.09;;;-2.07;79.80
77003;BME280;65939;50.060;14.288;2024-01-15T07:28:14;95532.09;;;-2.06;79.56
77003;BME280;65939;50.060;14.288;2024-01-15T07:30:14;95531.84;;;-2.03;79.92
77003;BME280;65939;50.060;14.288;2024-01-15T07:32:15;95533.91;;;-1.97;79.51
77003;BME280;65939;50.060;14.288;2024-01-15T07:34:17;95530.06;;;-1.91;79.41
77003;BME280;65939;50.060;14.288;2024-01-15T07:36:18;95534.69;;;-1.85;79.27
77003;BME280;65939;50.060;14.288;2024-01-15T07:38:18;95531.50;;;-1.77;79.47
77003;BME280;65939;50.060;14.288;2024-01-15T07:40:19;95540.19;;;-1.69;79.34
77003;BME280;65939;50.060;14.288;2024-01-15T07:42:20;95533.78;;;-1.63;78.97
77003;BME280;65939;50.060;14.288;2024-01-15T07:44:20;95535.94;;;-1.58;78.67
77003;BME280;65939;50.060;14.288;2024-01-15T07:46:21;95534.91;;;-1.56;78.56
77003;BME280;65939;50.060;14.288;2024-01-15T07:48:22;95540.69;;;-1.54;78.66
77003;BME280;65939;50.060;14.288;2024-01-15T07:50:22;95531.25;;;-1.53;78.41
77003;BME280;65939;50.060;14.288;2024-01-15T07:52:23;95532.91;;;-1.52;78.24
77003;BME280;65939;50.060;14.288;2024-01-15T07:54:23;95544.88;;;-1.53;77.93
77003;BME280;65939;50.060;14.288;2024-01-15T07:56:24;95543.81;;;-1.50;77.95
77003;BME280;65939;50.060;14.288;2024-01-15T07:58:25;95538.44;;;-1.47;77.89
77003;BME280;65939;50.060;14.288;2024-01-15T08:00:25;95539.81;;;-1.43;78.07
77003;BME280;65939;50.060;14.288;2024-01-15T08:02:26;95527.31;;;-1.36;77.80
77003;BME280;65939;50.060;14.288;2024-01-15T08:04:27;95536.13;;;-1.29;77.76
77003;BME280;65939;50.060;14.288;2024-01-15T08:06:28;95532.66;;;-1.18;77.91
77003;BME280;65939;50.060;14.288;2024-01-15T08:08:28;95531.13;;;-1.10;77.54
77003;BME280;65939;50.060;14.288;2024-01-15T08:10:29;95528.72;;;-1.02;77.09
77003;BME280;65939;50.060;14.288;2024-01-15T08:12:30;95534.25;;;-0.97;77.50
77003;BME280;65939;50.060;14.288;2024-01-15T08:14:30;95524.47;;;-0.91;77.03
77003;BME280;65939;50.060;14.288;2024-01-15T08:16:31;95522.31;;;-0.86;76.67
77003;BME280;65939;50.060;14.288;2024-01-15T08:18:32;95537.41;;;-0.83;76.85
77003;BME280;65939;50.060;14.288;2024-01-15T08:20:32;95532.03;;;-0.80;76.76
77003;BME280;65939;50.060;14.288;2024-01-15T08:22:33;95542.69;;;-0.75;76.39
77003;BME280;65939;50.060;14.288;2024-01-15T08:24:34;95550.81;;;-0.70;75.85
77003;BME280;65939;50.060;14.288;2024-01-15T08:26:34;95539.22;;;-0.64;76.55
77003;BME280;65939;50.060;14.288;2024-01-15T08:28:35;95552.34;;;-0.58;76.18
77003;BME280;65939;50.060;14.288;2024-01-15T08:30:36;95541.84;;;-0.55;76.02
77003;BME280;65939;50.060;14.288;2024-01-15T08:32:36;95541.56;;;-0.52;75.97
77003;BME280;65939;50.060;14.288;2024-01-15T08:34:41;95546.56;;;-0.50;75.53
77003;BME280;65939;50.060;14.288;2024-01-15T08:36:42;95531.19;;;-0.50;74.34
77003;BME280;65939;50.060;14.288;2024-01-15T08:38:43;95522.44;;;-0.47;74.92
77003;BME280;65939;50.060;14.288;2024-01-15T08:40:45;95523.13;;;-0.45;74.48
77003;BME280;65939;50.060;14.288;2024-01-15T08:42:45;95506.78;;;-0.44;74.58
77003;BME280;65939;50.060;14.288;2024-01-15T08:44:46;95510.97;;;-0.43;74.09
77003;BME280;65939;50.060;14.288;2024-01-15T08:46:47;95514.06;;;-0.40;73.86
77003;BME280;65939;50.060;14.288;2024-01-15T08:48:48;95505.16;;;-0.36;74.32
77003;BME280;65939;50.060;14.288;2024-01-15T08:50:48;95493.84;;;-0.33;73.72
77003;BME280;65939;50.060;14.288;2024-01-15T08:52:49;95491.81;;;-0.30;74.46
77003;BME280;65939;50.060;14.288;2024-01-15T08:54:50;95495.75;;;-0.26;73.35
77003;BME280;65939;50.060;14.288;2024-01-15T08:56:50;95500.59;;;-0.22;73.71
77003;BME280;65939;50.060;14.288;2024-01-15T08:58:51;95490.22;;;-0.21;73.60
77003;BME280;65939;50.060;14.288;2024-01-15T09:00:52;95496.81;;;-0.18;73.23
77003;BME280;65939;50.060;14.288;2024-01-15T09:02:52;95497.38;;;-0.15;73.14
77003;BME280;65939;50.060;14.288;2024-01-15T09:04:53;95493.34;;;-0.17;72.76
77003;BME280;65939;50.060;14.288;2024-01-15T09:06:54;95494.69;;;-0.13;72.74
77003;BME280;65939;50.060;14.288;2024-01-15T09:08:54;95496.16;;;-0.11;72.72
77003;BME280;65939;50.060;14.288;2024-01-15T09:10:55;95494.53;;;-0.12;72.42
77003;BME280;65939;50.060;14.288;2024-01-15T09:12:55;95497.09;;;-0.12;72.33
77003;BME280;65939;50.060;14.288;2024-01-15T09:14:56;95500.47;;;-0.11;72.03
77003;BME280;65939;50.060;14.288;2024-01-15T09:16:57;95506.00;;;-0.16;71.95
77003;BME280;65939;50.060;14.288;2024-01-15T09:18:58;95509.28;;;-0.14;72.39
77003;BME280;65939;50.060;14.288;2024-01-15T09:20:59;95507.66;;;-0.05;72.82
77003;BME280;65939;50.060;14.288;2024-01-15T09:23:00;95503.75;;;0.01;72.05
77003;BME280;65939;50.060;14.288;2024-01-15T09:25:01;95503.34;;;0.05;72.47
77003;BME280;65939;50.060;14.288;2024-01-15T09:27:04;95502.91;;;0.10;71.59
77003;BME280;65939;50.060;14.288;2024-01-15T09:29:04;95508.72;;;0.12;71.30
77003;BME280;65939;50.060;14.288;2024-01-15T09:31:05;95511.16;;;0.13;71.18
77003;BME280;65939;50.060;14.288;2024-01-15T09:33:06;95511.56;;;0.09;71.58
77003;BME280;65939;50.060;14.288;2024-01-15T09:35:07;95512.78;;;0.05;71.21
77003;BME280;65939;50.060;14.288;2024-01-15T09:37:08;95513.44;;;0.07;71.80
77003;BME280;65939;50.060;14.288;2024-01-15T09:39:09;95511.72;;;0.07;71.07
77003;BME280;65939;50.060;14.288;2024-01-15T09:41:11;95504.81;;;0.08;71.48
77003;BME280;65939;50.060;14.288;2024-01-15T09:43:12;95500.34;;;0.10;71.15
77003;BME280;65939;50.060;14.288;2024-01-15T09:45:15;95485.38;;;0.15;70.98
77003;BME280;65939;50.060;14.288;2024-01-15T09:47:18;95495.38;;;0.18;70.81
77003;BME280;65939;50.060;14.288;2024-01-15T09:49:19;95500.34;;;0.19;70.42
77003;BME280;65939;50.060;14.288;2024-01-15T09:51:20;95511.69;;;0.27;70.97
77003;BME280;65939;50.060;14.288;2024-01-15T09:53:21;95499.00;;;0.25;70.83
77003;BME280;65939;50.060;14.288;2024-01-15T09:55:22;95489.56;;;0.26;70.29
77003;BME280;65939;50.060;14.288;2024-01-15T09:57:23;95499.41;;;0.30;70.69
77003;BME280;65939;50.060;14.288;2024-01-15T09:59:25;95503.47;;;0.33;70.59
77003;BME280;65939;50.060;14.288;2024-01-15T10:01:28;95500.88;;;0.33;70.13
77003;BME280;65939;50.060;14.288;2024-01-15T10:03:28;95488.59;;;0.36;70.42
77003;BME280;65939;50.060;14.288;2024-01-15T10:05:30;95487.63;;;0.37;69.76
77003;BME280;65939;50.060;14.288;2024-01-15T10:07:35;95490.75;;;0.41;70.47
77003;BME280;65939;50.060;14.288;2024-01-15T10:09:36;95491.81;;;0.38;69.97
77003;BME280;65939;50.060;14.288;2024-01-15T10:11:37;95491.16;;;0.36;69.61
77003;BME280;65939;50.060;14.288;2024-01-15T10:13:38;95490.22;;;0.37;69.90
77003;BME280;65939;50.060;14.288;2024-01-15T10:15:39;95478.34;;;0.36;69.19
77003;BME280;65939;50.060;14.288;2024-01-15T10:17:40;95472.91;;;0.39;69.48
77003;BME280;65939;50.060;14.288;2024-01-15T10:19:41;95469.94;;;0.44;69.80
77003;BME280;65939;50.060;14.288;2024-01-15T10:21:41;95466.94;;;0.48;69.87
77003;BME280;65939;50.060;14.288;2024-01-15T10:23:42;95466.94;;;0.48;69.50
77003;BME280;65939;50.060;14.288;2024-01-15T10:25:43;95461.38;;;0.53;68.95
77003;BME280;65939;50.060;14.288;2024-01-15T10:27:43;95453.56;;;0.55;68.61
77003;BME280;65939;50.060;14.288;2024-01-15T10:29:44;95454.22;;;0.57;69.42
77003;BME280;65939;50.060;14.288;2024-01-15T10:31:45;95459.75;;;0.62;69.33